Time;durP1;ratioP1;P1;durP2;ratioP2;P2;SDS_P1;SDS_P2;PMS_P1;PMS_P2;Temp;Humidity;BMP_temperature;BMP_pressure;BME280_temperature;BME280_humidity;BME280_pressure;Samples;Min_cycle;Max_cycle;Signal;HPM_P1;HPM_P2
2022/12/03 00:00:21;;;;;;;;;9.20;8.20;;;;;2.89;81.51;100467.06;5075891;28;8841;-57
2022/12/03 00:02:49;;;;;;;;;11.00;10.00;;;;;2.89;81.70;100462.66;5076420;28;8834;-57
2022/12/03 00:05:17;;;;;;;;;6.40;6.00;;;;;2.88;81.88;100465.38;5077002;28;8963;-58
2022/12/03 00:07:47;;;;;;;;;13.00;11.20;;;;;2.87;81.50;100461.88;5076684;28;8840;-58
2022/12/03 00:10:15;;;;;;;;;6.80;6.80;;;;;2.87;81.40;100466.28;5068438;28;8825;-58
2022/12/03 00:12:43;;;;;;;;;5.20;4.80;;;;;2.85;81.70;100463.72;5076885;28;8810;-58
2022/12/03 00:15:11;;;;;;;;;3.00;3.00;;;;;2.85;82.04;100461.09;5093190;28;8882;-59
2022/12/03 00:17:38;;;;;;;;;6.80;5.60;;;;;2.85;81.38;100455.81;5093332;28;8857;-58
2022/12/03 00:20:07;;;;;;;;;9.20;9.20;;;;;2.85;81.28;100466.34;5076023;28;8829;-58
2022/12/03 00:22:35;;;;;;;;;5.60;4.80;;;;;2.85;81.45;100462.84;5076063;28;8826;-58
2022/12/03 00:25:03;;;;;;;;;9.40;9.20;;;;;2.85;81.70;100466.34;5075313;28;8856;-58
2022/12/03 00:27:31;;;;;;;;;8.80;7.00;;;;;2.85;81.62;100466.34;5075017;28;8845;-57
2022/12/03 00:29:59;;;;;;;;;8.60;7.40;;;;;2.85;81.41;100466.34;5075478;28;8826;-59
2022/12/03 00:32:26;;;;;;;;;6.00;3.20;;;;;2.85;82.05;100460.22;5075139;28;8915;-59
2022/12/03 00:34:54;;;;;;;;;6.80;6.00;;;;;2.87;81.92;100461.88;5075798;28;8848;-56
2022/12/03 00:37:22;;;;;;;;;6.00;6.00;;;;;2.88;81.86;100460.13;5075796;28;8848;-57
2022/12/03 00:39:50;;;;;;;;;7.80;7.00;;;;;2.88;81.79;100452.22;5056074;28;8832;-57
2022/12/03 00:42:17;;;;;;;;;9.40;9.40;;;;;2.89;81.52;100457.41;5055703;28;8832;-56
2022/12/03 00:44:46;;;;;;;;;3.00;1.00;;;;;2.89;81.30;100453.94;5081624;28;8860;-57
2022/12/03 00:47:14;;;;;;;;;6.40;6.20;;;;;2.89;81.72;100449.50;5096580;28;8843;-58
2022/12/03 00:49:42;;;;;;;;;4.80;4.00;;;;;2.88;81.88;100452.22;5076260;28;8828;-58
2022/12/03 00:52:09;;;;;;;;;4.60;4.60;;;;;2.87;81.84;100453.97;5075785;28;8872;-58
2022/12/03 00:54:37;;;;;;;;;4.00;4.00;;;;;2.86;81.08;100449.66;5076080;28;8818;-57
2022/12/03 00:57:05;;;;;;;;;9.40;7.80;;;;;2.86;81.09;100447.00;5075997;28;8810;-58
2022/12/03 00:59:33;;;;;;;;;6.60;5.60;;;;;2.85;82.19;100447.94;5075946;28;8853;-56
2022/12/03 01:02:01;;;;;;;;;5.20;5.20;;;;;2.84;81.31;100448.84;5076374;28;9491;-56
2022/12/03 01:04:28;;;;;;;;;5.20;5.20;;;;;2.83;81.59;100446.28;5075427;28;8814;-57
2022/12/03 01:06:56;;;;;;;;;6.80;6.80;;;;;2.83;81.25;100446.28;5076050;28;8955;-56
2022/12/03 01:09:27;;;;;;;;;4.80;4.40;;;;;2.84;81.93;100443.59;5075520;28;8798;-58
2022/12/03 01:11:55;;;;;;;;;9.00;7.80;;;;;2.87;81.60;100447.88;5074944;28;8896;-57
2022/12/03 01:14:23;;;;;;;;;9.00;6.00;;;;;2.88;81.32;100445.16;5085818;28;8894;-56
2022/12/03 01:16:51;;;;;;;;;4.40;4.40;;;;;2.89;81.68;100446.03;5096676;28;9461;-58
2022/12/03 01:19:18;;;;;;;;;9.60;9.00;;;;;2.89;81.90;100453.94;5080521;28;8810;-58
2022/12/03 01:21:46;;;;;;;;;6.20;4.40;;;;;2.88;81.44;100453.06;5075514;28;8821;-59
2022/12/03 01:24:14;;;;;;;;;5.40;3.60;;;;;2.89;81.59;100452.13;5075566;28;8855;-59
2022/12/03 01:26:41;;;;;;;;;5.20;4.40;;;;;2.92;81.21;100452.03;5075784;28;8822;-58
2022/12/03 01:29:09;;;;;;;;;3.40;3.40;;;;;2.92;81.62;100445.91;5075509;28;8810;-58
2022/12/03 01:34:23;;;;;;;;;7.40;7.40;;;;;2.94;81.13;100452.81;5075843;28;8829;-55
2022/12/03 01:36:52;;;;;;;;;9.20;9.20;;;;;2.93;81.68;100459.00;5074723;28;8845;-55
2022/12/03 01:39:19;;;;;;;;;9.00;7.00;;;;;2.93;81.74;100455.50;5074815;28;8895;-56
2022/12/03 01:41:47;;;;;;;;;9.80;8.00;;;;;2.91;80.83;100447.69;5075436;28;9475;-56
2022/12/03 01:44:15;;;;;;;;;8.60;6.20;;;;;2.90;81.21;100455.63;5083783;28;9724;-58
2022/12/03 01:46:43;;;;;;;;;4.40;4.00;;;;;2.89;81.69;100448.66;5081140;28;8837;-58
2022/12/03 01:49:11;;;;;;;;;6.00;5.60;;;;;2.88;81.38;100447.81;5075025;28;8829;-57
2022/12/03 01:51:39;;;;;;;;;10.40;9.80;;;;;2.88;81.85;100445.16;5075235;28;8868;-58
2022/12/03 01:54:06;;;;;;;;;3.80;3.40;;;;;2.89;81.20;100446.88;5075304;28;8810;-55
2022/12/03 01:56:34;;;;;;;;;6.80;6.80;;;;;2.90;81.36;100451.25;5074868;28;8822;-56
2022/12/03 01:59:02;;;;;;;;;9.20;8.60;;;;;2.88;81.21;100450.44;5075207;28;8846;-56
2022/12/03 02:01:30;;;;;;;;;10.00;9.80;;;;;2.87;81.74;100451.34;5075421;28;8907;-58
2022/12/03 02:03:57;;;;;;;;;8.80;6.80;;;;;2.87;81.41;100448.72;5075385;28;8822;-58
2022/12/03 02:06:25;;;;;;;;;4.80;3.80;;;;;2.88;81.45;100452.22;5074986;28;8798;-58
2022/12/03 02:08:58;;;;;;;;;7.20;5.60;;;;;2.86;81.50;100457.53;5075395;28;8837;-58
2022/12/03 02:11:26;;;;;;;;;3.40;3.40;;;;;2.87;81.02;100453.97;5075470;28;9479;-58
2022/12/03 02:13:54;;;;;;;;;4.00;3.80;;;;;2.86;81.11;100452.28;5080662;28;8860;-58
2022/12/03 02:16:21;;;;;;;;;3.80;3.60;;;;;2.88;81.82;100450.44;5084792;28;8830;-58
2022/12/03 02:18:49;;;;;;;;;11.60;11.60;;;;;2.88;81.03;100458.31;5075243;28;8958;-59
2022/12/03 02:21:17;;;;;;;;;13.00;9.60;;;;;2.86;81.10;100456.66;5075391;28;8849;-57
2022/12/03 02:23:45;;;;;;;;;6.00;6.00;;;;;2.83;81.67;100457.66;5078286;28;8810;-58
2022/12/03 02:26:12;;;;;;;;;7.40;4.00;;;;;2.82;80.90;100455.97;5078674;28;8869;-58
2022/12/03 02:28:40;;;;;;;;;9.40;7.40;;;;;2.80;81.21;100447.25;5078885;28;8838;-58
2022/12/03 02:31:07;;;;;;;;;1.00;0.40;;;;;2.79;81.14;100452.59;5078884;28;8845;-57
2022/12/03 02:33:35;;;;;;;;;5.20;4.80;;;;;2.79;81.59;100448.19;5078527;28;8838;-59
2022/12/03 02:36:04;;;;;;;;;8.60;5.80;;;;;2.81;81.77;100446.34;5078935;28;8812;-58
2022/12/03 02:38:32;;;;;;;;;6.60;6.00;;;;;2.82;81.52;100444.56;5078931;28;8864;-59
2022/12/03 02:40:59;;;;;;;;;6.80;6.20;;;;;2.82;81.13;100440.19;5078988;28;9555;-58
2022/12/03 02:43:26;;;;;;;;;7.40;6.40;;;;;2.82;81.37;100440.19;5080321;28;8822;-59
2022/12/03 02:45:53;;;;;;;;;9.20;8.60;;;;;2.83;81.60;100436.63;5093387;28;8838;-58
2022/12/03 02:48:23;;;;;;;;;6.80;6.20;;;;;2.79;81.15;100434.19;5078376;28;8818;-58
2022/12/03 02:50:51;;;;;;;;;8.00;8.00;;;;;2.79;82.01;100432.41;5078831;28;8841;-58
2022/12/03 02:53:18;;;;;;;;;10.40;10.00;;;;;2.78;81.44;100429.81;5078098;28;8844;-58
2022/12/03 02:55:46;;;;;;;;;6.00;3.80;;;;;2.77;81.66;100430.75;5078165;28;9588;-58
2022/12/03 02:58:13;;;;;;;;;9.40;9.40;;;;;2.76;81.53;100429.91;5078551;28;8810;-58
2022/12/03 03:00:46;;;;;;;;;5.20;3.80;;;;;2.75;81.51;100436.09;5078473;28;9503;-58
2022/12/03 03:03:14;;;;;;;;;8.00;5.80;;;;;2.71;81.35;100431.84;5077841;28;8972;-58
2022/12/03 03:05:41;;;;;;;;;9.00;9.00;;;;;2.70;81.38;100434.53;5077888;28;8861;-58
2022/12/03 03:08:09;;;;;;;;;6.00;5.20;;;;;2.67;81.65;100440.81;5078203;28;8826;-58
2022/12/03 03:10:37;;;;;;;;;9.20;7.00;;;;;2.67;81.20;100430.28;5078450;28;8951;-58
2022/12/03 03:13:06;;;;;;;;;8.60;8.20;;;;;2.66;80.90;100444.31;5078217;28;8830;-58
2022/12/03 03:15:34;;;;;;;;;7.20;4.40;;;;;2.64;81.30;100438.28;5095556;28;8848;-58
2022/12/03 03:18:02;;;;;;;;;4.80;4.00;;;;;2.62;81.47;100432.22;5078193;28;8821;-58
2022/12/03 03:20:29;;;;;;;;;4.80;3.60;;;;;2.61;81.15;100432.28;5077915;28;8841;-58
2022/12/03 03:22:57;;;;;;;;;6.00;6.00;;;;;2.57;81.13;100436.81;5077792;28;8916;-58
2022/12/03 03:25:25;;;;;;;;;6.80;6.80;;;;;2.56;81.62;100436.88;5078106;28;8856;-58
2022/12/03 03:27:53;;;;;;;;;7.00;6.00;;;;;2.55;81.51;100438.63;5077797;28;8814;-58
2022/12/03 03:30:20;;;;;;;;;10.20;7.60;;;;;2.54;81.78;100433.44;5077706;28;8857;-58
2022/12/03 03:32:48;;;;;;;;;9.20;8.00;;;;;2.54;81.89;100431.69;5077912;28;8834;-58
2022/12/03 03:35:16;;;;;;;;;7.00;6.60;;;;;2.54;81.43;100430.81;5076510;28;8821;-57
2022/12/03 03:37:44;;;;;;;;;3.40;3.40;;;;;2.53;81.12;100437.84;5077588;28;8821;-58
2022/12/03 03:40:12;;;;;;;;;7.00;6.60;;;;;2.53;82.10;100435.22;5077493;28;8915;-58
2022/12/03 03:42:40;;;;;;;;;7.00;6.80;;;;;2.53;81.64;100432.59;5078001;28;8918;-58
2022/12/03 03:45:07;;;;;;;;;9.40;6.60;;;;;2.52;81.07;100436.16;5093154;28;8840;-58
2022/12/03 03:47:35;;;;;;;;;2.60;1.00;;;;;2.51;81.66;100428.31;5079186;28;8834;-58
2022/12/03 03:50:04;;;;;;;;;4.00;4.00;;;;;2.50;81.82;100426.59;5077648;28;8852;-57
2022/12/03 03:52:31;;;;;;;;;6.00;6.00;;;;;2.51;81.55;100434.41;5077520;28;8830;-58
2022/12/03 03:54:59;;;;;;;;;9.80;7.00;;;;;2.51;81.56;100430.94;5077347;28;9495;-58
2022/12/03 03:57:26;;;;;;;;;8.60;7.80;;;;;2.53;81.95;100432.59;5073319;28;8829;-59
2022/12/03 03:59:54;;;;;;;;;6.80;6.60;;;;;2.52;81.40;100425.63;5077255;28;9495;-58
2022/12/03 04:02:22;;;;;;;;;8.80;6.60;;;;;2.53;82.02;100431.72;5076809;28;8829;-58
2022/12/03 04:04:50;;;;;;;;;9.00;8.20;;;;;2.53;81.13;100426.47;5076108;28;8907;-58
2022/12/03 04:07:18;;;;;;;;;8.00;5.60;;;;;2.52;81.46;100420.38;5076936;28;8824;-58
2022/12/03 04:09:46;;;;;;;;;8.00;6.60;;;;;2.51;82.04;100423.91;5077258;28;8911;-58
2022/12/03 04:15:00;;;;;;;;;8.60;6.80;;;;;2.54;80.95;100423.78;5090686;28;8867;-58
2022/12/03 04:17:28;;;;;;;;;14.40;8.80;;;;;2.54;81.06;100418.53;5076820;28;8809;-58
2022/12/03 04:19:55;;;;;;;;;6.60;6.60;;;;;2.52;81.33;100415.13;5076384;28;8806;-58
2022/12/03 04:22:40;;;;;;;;;5.80;5.00;;;;;2.52;81.54;100417.75;5076324;28;8802;-58
2022/12/03 04:30:38;;;;;;;;;11.60;10.00;;;;;2.50;81.59;100410.84;5077078;28;8838;-58
2022/12/03 04:35:51;;;;;;;;;6.80;5.20;;;;;2.49;81.64;100404.72;5076120;28;8911;-58
2022/12/03 04:38:19;;;;;;;;;4.80;3.40;;;;;2.48;81.78;100408.25;5076152;28;8813;-58
2022/12/03 04:41:02;;;;;;;;;12.20;11.20;;;;;2.48;81.50;100416.16;5076249;28;8856;-58
2022/12/03 04:43:30;;;;;;;;;6.80;6.40;;;;;2.45;81.03;100403.13;5078524;28;8948;-58
2022/12/03 04:45:58;;;;;;;;;3.00;3.00;;;;;2.45;81.40;100408.41;5087525;28;8846;-58
2022/12/03 04:48:26;;;;;;;;;5.60;5.60;;;;;2.44;81.48;100401.41;5076085;28;8824;-58
2022/12/03 04:50:53;;;;;;;;;6.60;6.40;;;;;2.43;81.20;100389.19;5075930;28;8825;-58
2022/12/03 04:53:21;;;;;;;;;3.40;3.20;;;;;2.43;81.74;100394.44;5076111;28;8821;-59
2022/12/03 04:55:49;;;;;;;;;7.40;6.40;;;;;2.44;81.97;100393.53;5076131;28;8818;-58
2022/12/03 04:58:17;;;;;;;;;11.60;9.60;;;;;2.44;81.46;100390.06;5075947;28;8826;-58
2022/12/03 05:00:44;;;;;;;;;10.80;7.40;;;;;2.43;81.08;100391.81;5076049;28;8919;-58
2022/12/03 05:03:12;;;;;;;;;8.60;8.60;;;;;2.44;81.28;100390.06;5076173;28;9485;-58
2022/12/03 05:05:40;;;;;;;;;9.40;7.80;;;;;2.43;80.84;100386.56;5075604;28;8827;-58
2022/12/03 05:08:08;;;;;;;;;3.80;3.00;;;;;2.44;81.23;100390.06;5076207;28;8937;-58
2022/12/03 05:10:36;;;;;;;;;1.40;1.40;;;;;2.45;81.26;100394.38;5076150;28;8841;-58
2022/12/03 05:13:03;;;;;;;;;7.40;6.80;;;;;2.46;81.11;100394.34;5075752;28;8821;-56
2022/12/03 05:15:31;;;;;;;;;7.40;5.60;;;;;2.45;80.76;100379.50;5091107;28;8838;-58
2022/12/03 05:18:00;;;;;;;;;9.60;8.20;;;;;2.45;81.08;100382.13;5075815;28;8826;-58
2022/12/03 05:20:43;;;;;;;;;6.00;6.00;;;;;2.46;81.30;100380.31;5075868;28;8838;-59
2022/12/03 05:23:19;;;;;;;;;8.60;8.60;;;;;2.48;81.25;100381.13;5075994;28;8814;-57
2022/12/03 05:25:47;;;;;;;;;5.80;5.00;;;;;2.47;81.26;100375.03;5075293;28;8814;-59
2022/12/03 05:28:21;;;;;;;;;9.20;6.80;;;;;2.45;81.79;100383.88;5075964;28;8838;-59
2022/12/03 05:30:48;;;;;;;;;7.40;7.00;;;;;2.44;81.76;100379.53;5076348;28;8833;-58
2022/12/03 05:33:16;;;;;;;;;8.60;7.00;;;;;2.44;81.54;100380.38;5076023;28;8810;-58
2022/12/03 05:35:43;;;;;;;;;12.40;12.40;;;;;2.43;80.96;100388.34;5075286;28;8899;-58
2022/12/03 05:38:11;;;;;;;;;6.80;5.60;;;;;2.43;81.67;100386.56;5075597;28;8837;-58
2022/12/03 05:40:40;;;;;;;;;8.60;6.60;;;;;2.43;81.78;100389.19;5075749;28;8833;-58
2022/12/03 05:43:07;;;;;;;;;7.80;7.00;;;;;2.46;80.75;100383.81;5075517;28;8810;-59
2022/12/03 05:45:35;;;;;;;;;9.80;7.00;;;;;2.45;81.31;100386.50;5091335;28;9533;-58
2022/12/03 05:48:03;;;;;;;;;6.80;6.60;;;;;2.45;81.76;100384.75;5075460;28;8888;-57
2022/12/03 05:50:31;;;;;;;;;6.80;6.60;;;;;2.46;81.07;100389.06;5076185;28;8818;-58
2022/12/03 05:53:00;;;;;;;;;5.80;5.80;;;;;2.47;81.36;100388.16;5075852;28;8842;-58
2022/12/03 05:55:28;;;;;;;;;14.60;9.60;;;;;2.47;81.47;100390.78;5075577;28;8818;-59
2022/12/03 05:57:56;;;;;;;;;9.80;7.40;;;;;2.45;81.31;100390.00;5077305;28;8838;-57
2022/12/03 06:00:23;;;;;;;;;8.80;8.00;;;;;2.42;81.12;100392.72;5078994;28;8829;-59
2022/12/03 06:02:51;;;;;;;;;6.40;6.40;;;;;2.40;81.27;100393.69;5079318;28;8863;-57
2022/12/03 06:05:20;;;;;;;;;9.40;6.80;;;;;2.36;81.46;100402.63;5078776;28;8948;-57
2022/12/03 06:07:47;;;;;;;;;6.40;5.20;;;;;2.32;81.14;100386.13;5079200;28;8845;-58
2022/12/03 06:10:16;;;;;;;;;1.40;1.40;;;;;2.29;81.13;100391.50;5070921;28;8841;-58
2022/12/03 06:12:43;;;;;;;;;6.60;6.20;;;;;2.24;80.91;100401.34;5079347;28;8821;-58
2022/12/03 06:15:11;;;;;;;;;4.20;3.40;;;;;2.22;81.08;100399.69;5095765;28;9509;-58
2022/12/03 06:17:40;;;;;;;;;7.00;6.60;;;;;2.19;80.84;100391.94;5078341;28;8806;-58
2022/12/03 06:20:08;;;;;;;;;6.00;4.00;;;;;2.14;81.26;100394.72;5078510;28;8834;-58
2022/12/03 06:22:36;;;;;;;;;9.60;9.00;;;;;2.09;81.55;100391.44;5078442;28;8834;-58
2022/12/03 06:25:03;;;;;;;;;4.20;3.40;;;;;2.08;81.50;100397.59;5078449;28;8911;-58
2022/12/03 06:27:33;;;;;;;;;5.80;3.60;;;;;2.08;81.77;100392.34;5077646;28;8869;-58
2022/12/03 06:30:01;;;;;;;;;5.80;4.80;;;;;2.09;81.63;100395.81;5078299;28;8913;-59
2022/12/03 06:32:28;;;;;;;;;5.20;3.20;;;;;2.11;82.12;100397.47;5078478;28;8895;-58
2022/12/03 06:34:57;;;;;;;;;13.20;11.80;;;;;2.14;81.54;100399.13;5078226;28;8818;-59
2022/12/03 06:37:24;;;;;;;;;7.60;6.80;;;;;2.12;80.70;100393.91;5077913;28;9468;-59
2022/12/03 06:39:52;;;;;;;;;7.00;6.60;;;;;2.14;81.60;100392.09;5078554;28;8822;-58
2022/12/03 06:42:20;;;;;;;;;8.40;8.40;;;;;2.14;81.51;100388.63;5078045;28;8834;-58
2022/12/03 06:44:47;;;;;;;;;7.60;7.20;;;;;2.11;81.54;100381.72;5090319;28;8848;-58
2022/12/03 06:47:15;;;;;;;;;6.40;5.60;;;;;2.09;81.78;100390.56;5078421;28;8818;-58
2022/12/03 06:49:43;;;;;;;;;8.60;7.40;;;;;2.08;81.33;100396.72;5077989;28;8811;-58
2022/12/03 06:52:10;;;;;;;;;13.60;11.80;;;;;2.07;81.46;100398.53;5078280;28;9536;-58
2022/12/03 06:54:38;;;;;;;;;11.20;7.00;;;;;2.08;81.64;100391.47;5077546;28;8838;-58
2022/12/03 06:57:06;;;;;;;;;9.00;9.00;;;;;2.08;81.57;100397.59;5077861;28;8806;-58
2022/12/03 06:59:36;;;;;;;;;7.60;6.20;;;;;2.09;81.11;100395.81;5077841;28;9538;-58
2022/12/03 07:02:03;;;;;;;;;6.20;6.00;;;;;2.07;81.41;100395.88;5077922;28;8826;-59
2022/12/03 07:04:31;;;;;;;;;10.80;9.40;;;;;2.08;81.16;100397.59;5077580;28;8902;-58
2022/12/03 07:06:59;;;;;;;;;8.00;7.40;;;;;2.07;81.34;100402.91;5076888;28;8821;-59
2022/12/03 07:09:27;;;;;;;;;9.00;8.60;;;;;2.06;81.80;100407.28;5075961;28;8822;-58
2022/12/03 07:11:54;;;;;;;;;10.80;10.00;;;;;2.05;81.29;100397.69;5077573;28;8856;-57
2022/12/03 07:14:22;;;;;;;;;8.60;7.00;;;;;2.06;81.16;100398.56;5087623;28;8828;-56
2022/12/03 07:16:50;;;;;;;;;7.40;6.60;;;;;2.06;81.16;100399.41;5080583;28;8814;-58
2022/12/03 07:19:22;;;;;;;;;3.00;0.00;;;;;2.05;81.16;100402.09;5077685;28;8841;-58
2022/12/03 07:21:57;;;;;;;;;8.00;8.00;;;;;2.06;81.64;100396.78;5077590;28;8846;-58
2022/12/03 07:24:25;;;;;;;;;6.40;4.80;;;;;2.07;81.32;100395.03;5076225;28;8842;-58
2022/12/03 07:26:52;;;;;;;;;9.60;7.80;;;;;2.07;81.55;100395.88;5075725;28;8818;-58
2022/12/03 07:29:22;;;;;;;;;3.80;3.00;;;;;2.08;81.57;100397.59;5076086;28;8849;-59
2022/12/03 07:31:49;;;;;;;;;7.40;6.20;;;;;2.08;80.69;100392.34;5076608;28;8838;-58
2022/12/03 07:34:17;;;;;;;;;10.40;9.60;;;;;2.11;80.93;100383.50;5076147;28;8837;-58
2022/12/03 07:36:45;;;;;;;;;6.40;6.00;;;;;2.10;81.32;100390.50;5075926;28;8817;-57
2022/12/03 07:39:12;;;;;;;;;6.00;5.60;;;;;2.11;81.27;100391.38;5076924;28;8844;-58
2022/12/03 07:41:41;;;;;;;;;4.00;1.00;;;;;2.10;81.45;100390.50;5077240;28;8834;-56
2022/12/03 07:44:09;;;;;;;;;8.20;7.40;;;;;2.11;81.50;100386.97;5084707;28;8839;-56
2022/12/03 07:46:40;;;;;;;;;11.60;7.40;;;;;2.14;81.26;100381.59;5081580;28;9507;-57
2022/12/03 07:49:09;;;;;;;;;6.60;5.60;;;;;2.17;80.83;100385.88;5077037;28;8842;-58
2022/12/03 07:51:36;;;;;;;;;13.40;12.20;;;;;2.16;80.50;100385.03;5077018;28;9049;-58
2022/12/03 07:54:05;;;;;;;;;9.40;8.00;;;;;2.18;81.22;100375.31;5076508;28;8834;-57
2022/12/03 07:56:32;;;;;;;;;7.40;7.00;;;;;2.21;81.10;100383.06;5076091;28;8833;-57
2022/12/03 07:59:00;;;;;;;;;4.00;2.60;;;;;2.25;80.48;100383.78;5076189;28;8919;-58
2022/12/03 08:01:28;;;;;;;;;8.40;7.80;;;;;2.28;81.03;100381.06;5076186;28;8845;-58
2022/12/03 08:04:02;;;;;;;;;10.00;9.60;;;;;2.31;80.45;100383.56;5075634;28;8826;-57
2022/12/03 08:06:35;;;;;;;;;9.60;8.80;;;;;2.33;81.03;100374.72;5074569;28;8818;-58
2022/12/03 08:09:02;;;;;;;;;7.20;5.80;;;;;2.35;80.10;100372.88;5075055;28;8846;-58
2022/12/03 08:11:30;;;;;;;;;6.40;5.20;;;;;2.34;80.46;100373.78;5075445;28;8858;-58
2022/12/03 08:13:58;;;;;;;;;7.40;6.20;;;;;2.35;80.51;100377.28;5081420;28;8838;-58
2022/12/03 08:16:25;;;;;;;;;12.80;12.20;;;;;2.36;80.19;100373.75;5083191;28;8849;-57
2022/12/03 08:18:56;;;;;;;;;4.00;4.00;;;;;2.37;80.59;100375.44;5075742;28;8822;-57
2022/12/03 08:21:23;;;;;;;;;9.20;7.40;;;;;2.39;80.41;100373.59;5075127;28;8813;-57
2022/12/03 08:23:51;;;;;;;;;8.80;8.20;;;;;2.42;80.31;100369.09;5076050;28;8836;-58
2022/12/03 08:26:19;;;;;;;;;7.80;5.60;;;;;2.46;80.76;100370.69;5075309;28;8944;-58
2022/12/03 08:28:47;;;;;;;;;9.20;9.00;;;;;2.49;80.76;100373.19;5074540;28;8837;-58
2022/12/03 08:31:17;;;;;;;;;9.20;7.80;;;;;2.52;80.04;100370.44;5074821;28;8821;-58
2022/12/03 08:33:45;;;;;;;;;7.40;6.80;;;;;2.56;80.44;100368.56;5074957;28;8814;-58
2022/12/03 08:36:13;;;;;;;;;6.60;5.40;;;;;2.59;80.49;100374.50;5075566;28;8829;-56
2022/12/03 08:38:40;;;;;;;;;7.80;6.80;;;;;2.61;80.18;100367.44;5074789;28;8812;-57
2022/12/03 08:41:08;;;;;;;;;8.00;8.00;;;;;2.63;79.79;100370.84;5074656;28;8862;-58
2022/12/03 08:43:40;;;;;;;;;9.80;9.80;;;;;2.66;80.02;100369.88;5077756;28;8950;-58
2022/12/03 08:46:08;;;;;;;;;9.80;5.80;;;;;2.67;80.07;100367.19;5094557;28;8859;-58
2022/12/03 08:48:36;;;;;;;;;9.00;8.00;;;;;2.71;80.26;100370.53;5084730;28;8850;-54
2022/12/03 08:51:04;;;;;;;;;6.00;6.00;;;;;2.75;79.71;100374.75;5073832;28;8905;-57
2022/12/03 08:53:32;;;;;;;;;4.80;3.60;;;;;2.77;79.82;100376.41;5073549;28;8841;-57
2022/12/03 08:56:01;;;;;;;;;8.60;8.00;;;;;2.77;79.38;100373.78;5073710;28;9600;-57
2022/12/03 08:58:29;;;;;;;;;5.40;5.40;;;;;2.79;80.07;100371.94;5074128;28;8811;-58
2022/12/03 09:00:57;;;;;;;;;4.00;3.40;;;;;2.82;79.45;100377.09;5073933;28;8848;-58
2022/12/03 09:03:25;;;;;;;;;9.00;7.80;;;;;2.85;79.14;100370.81;5073669;28;8910;-57
2022/12/03 09:05:53;;;;;;;;;9.00;7.00;;;;;2.86;79.47;100380.41;5074481;28;8833;-57
2022/12/03 09:08:21;;;;;;;;;9.20;8.60;;;;;2.89;79.17;100370.63;5074599;28;8848;-57
2022/12/03 09:10:49;;;;;;;;;10.00;10.00;;;;;2.94;79.61;100371.28;5074846;28;8856;-57
2022/12/03 09:13:16;;;;;;;;;9.80;9.00;;;;;3.00;79.53;100370.16;5067684;28;8838;-58
2022/12/03 09:15:44;;;;;;;;;8.60;8.60;;;;;3.03;79.09;100370.91;5094763;28;8843;-58
2022/12/03 09:18:13;;;;;;;;;6.80;6.60;;;;;3.09;78.85;100372.44;5090756;28;8837;-58
2022/12/03 09:20:42;;;;;;;;;8.60;8.60;;;;;3.12;79.16;100364.41;5073986;28;8818;-57
2022/12/03 09:23:10;;;;;;;;;3.80;3.80;;;;;3.13;78.68;100364.34;5072191;28;8915;-58
2022/12/03 09:25:38;;;;;;;;;13.00;9.00;;;;;3.18;78.56;100372.88;5072143;28;9527;-56
2022/12/03 09:28:06;;;;;;;;;11.20;9.40;;;;;3.22;78.83;100366.56;5072163;28;8880;-57
2022/12/03 09:30:34;;;;;;;;;7.20;4.00;;;;;3.28;78.54;100375.97;5072045;28;8817;-57
2022/12/03 09:33:04;;;;;;;;;6.00;6.00;;;;;3.32;78.22;100367.88;5071645;28;8842;-58
2022/12/03 09:35:32;;;;;;;;;7.80;7.40;;;;;3.33;78.68;100374.84;5071713;28;8966;-57
2022/12/03 09:38:00;;;;;;;;;6.80;4.80;;;;;3.36;78.13;100379.13;5073194;28;9498;-56
2022/12/03 09:40:28;;;;;;;;;7.40;5.20;;;;;3.38;78.33;100372.00;5073388;28;8826;-58
2022/12/03 09:42:57;;;;;;;;;3.80;3.80;;;;;3.40;78.10;100370.19;5073814;28;8865;-55
2022/12/03 09:45:26;;;;;;;;;6.20;3.80;;;;;3.39;77.94;100363.22;5092367;28;8979;-57
2022/12/03 09:47:54;;;;;;;;;10.40;9.00;;;;;3.38;78.17;100365.00;5093020;28;8854;-58
2022/12/03 09:50:22;;;;;;;;;14.80;10.20;;;;;3.38;78.01;100357.09;5073705;28;9478;-58
2022/12/03 09:52:51;;;;;;;;;9.00;7.60;;;;;3.39;78.20;100364.06;5074006;28;9550;-58
2022/12/03 09:55:19;;;;;;;;;8.40;6.80;;;;;3.42;78.40;100357.81;5073628;28;8924;-57
2022/12/03 09:57:50;;;;;;;;;10.00;10.00;;;;;3.43;78.26;100355.13;5073831;28;8843;-58
2022/12/03 10:00:18;;;;;;;;;7.80;7.40;;;;;3.40;77.82;100354.41;5073172;28;8843;-55
2022/12/03 10:02:46;;;;;;;;;9.20;7.80;;;;;3.37;77.99;100350.13;5072610;28;9884;-57
2022/12/03 10:05:14;;;;;;;;;18.80;15.40;;;;;3.36;78.19;100342.28;5072000;28;8845;-58
2022/12/03 10:07:42;;;;;;;;;15.40;9.40;;;;;3.32;78.27;100341.56;5071833;28;8841;-57
2022/12/03 10:10:11;;;;;;;;;9.60;8.20;;;;;3.30;78.08;100337.28;5072135;28;8814;-58
2022/12/03 10:12:39;;;;;;;;;9.40;9.00;;;;;3.28;77.58;100337.38;5072785;28;8837;-58
2022/12/03 10:15:08;;;;;;;;;13.40;10.80;;;;;3.28;78.50;100340.00;5088427;28;8847;-55
2022/12/03 10:17:35;;;;;;;;;10.80;10.40;;;;;3.28;78.00;100344.41;5092301;28;8835;-58
2022/12/03 10:20:03;;;;;;;;;9.00;8.20;;;;;3.28;77.66;100340.00;5073818;28;8834;-57
2022/12/03 10:22:36;;;;;;;;;18.20;15.00;;;;;3.32;78.35;100335.47;5072066;28;8991;-58
2022/12/03 10:25:04;;;;;;;;;7.00;6.40;;;;;3.35;78.03;100336.19;5072143;28;8843;-58
2022/12/03 10:27:32;;;;;;;;;6.20;6.00;;;;;3.37;78.27;100336.09;5072267;28;8829;-57
2022/12/03 10:30:00;;;;;;;;;11.20;9.80;;;;;3.38;78.29;100332.53;5071052;28;8948;-57
2022/12/03 10:32:27;;;;;;;;;8.40;8.00;;;;;3.37;77.52;100329.06;5071813;28;8934;-55
2022/12/03 10:34:59;;;;;;;;;8.20;7.40;;;;;3.36;77.24;100335.25;5072392;28;8833;-57
2022/12/03 10:37:27;;;;;;;;;9.80;8.60;;;;;3.33;77.25;100316.97;5070535;28;8918;-57
2022/12/03 10:39:55;;;;;;;;;6.00;6.00;;;;;3.29;77.83;100319.78;5070892;28;8829;-57
2022/12/03 10:42:23;;;;;;;;;9.40;8.60;;;;;3.26;77.32;100320.78;5070454;28;8825;-56
2022/12/03 10:44:52;;;;;;;;;8.20;7.00;;;;;3.27;77.58;100314.59;5077755;28;8891;-57
2022/12/03 10:47:23;;;;;;;;;11.00;6.40;;;;;3.31;77.84;100308.28;5073396;28;8862;-57
2022/12/03 10:49:51;;;;;;;;;13.40;10.80;;;;;3.37;77.50;100301.88;5073716;28;8958;-55
2022/12/03 10:52:19;;;;;;;;;13.20;12.60;;;;;3.36;77.42;100303.69;5074089;28;9517;-58
2022/12/03 10:54:52;;;;;;;;;7.80;7.80;;;;;3.40;77.40;100296.50;5073578;28;8838;-55
2022/12/03 10:57:20;;;;;;;;;10.60;9.80;;;;;3.41;77.89;100298.22;5073175;28;8817;-56
2022/12/03 10:59:48;;;;;;;;;12.60;12.60;;;;;3.40;77.69;100297.34;5074877;28;8845;-57
2022/12/03 11:02:16;;;;;;;;;20.20;16.80;;;;;3.39;77.71;100290.38;5075134;28;8932;-57
2022/12/03 11:04:45;;;;;;;;;9.40;9.40;;;;;3.41;77.07;100285.88;5074223;28;8818;-57
2022/12/03 11:07:12;;;;;;;;;12.20;12.20;;;;;3.44;77.33;100279.63;5074470;28;8842;-55
2022/12/03 11:09:40;;;;;;;;;12.60;12.40;;;;;3.46;77.04;100272.50;5074577;28;9552;-57
2022/12/03 11:12:08;;;;;;;;;14.40;13.40;;;;;3.47;77.40;100269.81;5073929;28;8857;-57
2022/12/03 11:14:36;;;;;;;;;8.40;7.40;;;;;3.51;77.53;100274.03;5085842;28;8844;-57
2022/12/03 11:17:05;;;;;;;;;17.20;16.20;;;;;3.52;77.15;100275.75;5095145;28;8827;-58
2022/12/03 11:19:33;;;;;;;;;6.20;6.00;;;;;3.53;77.19;100268.69;5095235;28;8920;-58
2022/12/03 11:22:01;;;;;;;;;17.20;16.40;;;;;3.56;76.69;100271.19;5092708;28;8924;-56
2022/12/03 11:24:29;;;;;;;;;11.80;9.80;;;;;3.57;76.81;100273.72;5073719;28;8834;-58
2022/12/03 11:26:57;;;;;;;;;20.20;16.40;;;;;3.56;76.71;100272.03;5074106;28;8844;-57
2022/12/03 11:29:26;;;;;;;;;23.20;21.00;;;;;3.56;77.06;100265.94;5073210;28;8830;-59
2022/12/03 11:31:54;;;;;;;;;17.20;16.00;;;;;3.55;77.15;100272.97;5073775;28;8838;-58
2022/12/03 11:34:21;;;;;;;;;15.40;14.00;;;;;3.53;77.44;100272.19;5072785;28;8810;-58
2022/12/03 11:36:50;;;;;;;;;17.40;17.20;;;;;3.49;76.64;100270.59;5077648;28;8820;-57
2022/12/03 11:39:28;;;;;;;;;22.40;20.00;;;;;3.46;77.24;100269.88;5093750;28;9811;-58
2022/12/03 11:41:56;;;;;;;;;12.20;10.40;;;;;3.46;76.96;100275.16;5093046;28;8824;-58
2022/12/03 11:44:24;;;;;;;;;14.20;14.00;;;;;3.44;77.28;100261.22;5083426;28;8946;-56
2022/12/03 11:46:53;;;;;;;;;12.00;7.80;;;;;3.43;77.19;100263.00;5094251;28;8848;-58
2022/12/03 11:49:21;;;;;;;;;14.20;11.20;;;;;3.44;76.71;100264.72;5093372;28;8849;-58
2022/12/03 11:51:49;;;;;;;;;9.80;9.20;;;;;3.46;76.80;100260.22;5092541;28;8904;-57
2022/12/03 11:54:17;;;;;;;;;11.60;10.00;;;;;3.46;77.07;100254.97;5072125;28;8926;-58
2022/12/03 11:56:46;;;;;;;;;10.40;7.80;;;;;3.46;77.33;100262.84;5072142;28;8872;-58